sensor_id;sensor_type;location;lat;lon;timestamp;temperature;humidity
60353;DHT22;46196;52.970;6.954;2023-07-30T00:01:15;15.50;99.90
60353;DHT22;46196;52.970;6.954;2023-07-30T00:03:41;16.00;99.90
60353;DHT22;46196;52.970;6.954;2023-07-30T00:06:07;16.90;99.90
60353;DHT22;46196;52.970;6.954;2023-07-30T00:08:32;15.90;99.90
60353;DHT22;46196;52.970;6.954;2023-07-30T00:10:58;16.60;99.90
60353;DHT22;46196;52.970;6.954;2023-07-30T00:15:50;14.40;99.90
60353;DHT22;46196;52.970;6.954;2023-07-30T00:18:16;15.50;99.90
60353;DHT22;46196;52.970;6.954;2023-07-30T00:20:42;14.60;99.90
60353;DHT22;46196;52.970;6.954;2023-07-30T00:23:08;16.00;99.90
60353;DHT22;46196;52.970;6.954;2023-07-30T00:25:34;15.80;99.90
60353;DHT22;46196;52.970;6.954;2023-07-30T00:27:59;15.30;99.90
60353;DHT22;46196;52.970;6.954;2023-07-30T00:30:26;15.50;99.90
60353;DHT22;46196;52.970;6.954;2023-07-30T00:37:44;14.60;99.90
60353;DHT22;46196;52.970;6.954;2023-07-30T00:40:11;15.10;99.90
60353;DHT22;46196;52.970;6.954;2023-07-30T00:45:03;16.00;99.90
60353;DHT22;46196;52.970;6.954;2023-07-30T00:47:29;16.00;99.90
60353;DHT22;46196;52.970;6.954;2023-07-30T00:49:55;15.80;99.90
60353;DHT22;46196;52.970;6.954;2023-07-30T00:52:21;15.60;99.90
60353;DHT22;46196;52.970;6.954;2023-07-30T00:54:48;15.30;99.90
60353;DHT22;46196;52.970;6.954;2023-07-30T00:57:16;15.10;99.90
60353;DHT22;46196;52.970;6.954;2023-07-30T00:59:43;15.40;99.90
60353;DHT22;46196;52.970;6.954;2023-07-30T01:02:09;15.30;99.90
60353;DHT22;46196;52.970;6.954;2023-07-30T01:04:36;14.90;99.90
60353;DHT22;46196;52.970;6.954;2023-07-30T01:07:03;14.80;99.90
60353;DHT22;46196;52.970;6.954;2023-07-30T01:09:29;15.40;99.90
60353;DHT22;46196;52.970;6.954;2023-07-30T01:11:55;15.20;99.90
60353;DHT22;46196;52.970;6.954;2023-07-30T01:14:21;15.20;99.90
60353;DHT22;46196;52.970;6.954;2023-07-30T01:16:49;16.30;99.90
60353;DHT22;46196;52.970;6.954;2023-07-30T01:19:15;15.10;99.90
60353;DHT22;46196;52.970;6.954;2023-07-30T01:24:06;14.50;99.90
60353;DHT22;46196;52.970;6.954;2023-07-30T01:26:38;15.00;99.90
60353;DHT22;46196;52.970;6.954;2023-07-30T01:29:09;14.70;99.90
60353;DHT22;46196;52.970;6.954;2023-07-30T01:31:37;15.00;99.90
60353;DHT22;46196;52.970;6.954;2023-07-30T01:34:07;15.20;99.90
60353;DHT22;46196;52.970;6.954;2023-07-30T01:36:33;15.20;99.90
60353;DHT22;46196;52.970;6.954;2023-07-30T01:41:26;14.90;99.90
60353;DHT22;46196;52.970;6.954;2023-07-30T01:43:53;13.60;99.90
60353;DHT22;46196;52.970;6.954;2023-07-30T01:46:19;15.00;99.90
60353;DHT22;46196;52.970;6.954;2023-07-30T01:48:45;14.80;99.90
60353;DHT22;46196;52.970;6.954;2023-07-30T01:51:10;15.40;99.90
60353;DHT22;46196;52.970;6.954;2023-07-30T01:53:36;15.10;99.90
60353;DHT22;46196;52.970;6.954;2023-07-30T01:56:02;15.10;99.90
60353;DHT22;46196;52.970;6.954;2023-07-30T01:58:27;14.80;99.90
60353;DHT22;46196;52.970;6.954;2023-07-30T02:03:19;14.80;99.90
60353;DHT22;46196;52.970;6.954;2023-07-30T02:05:45;15.00;99.90
60353;DHT22;46196;52.970;6.954;2023-07-30T02:08:10;15.20;99.90
60353;DHT22;46196;52.970;6.954;2023-07-30T02:10:38;16.60;99.90
60353;DHT22;46196;52.970;6.954;2023-07-30T02:13:04;15.10;99.90
60353;DHT22;46196;52.970;6.954;2023-07-30T02:15:30;14.60;99.90
60353;DHT22;46196;52.970;6.954;2023-07-30T02:17:55;14.90;99.90
60353;DHT22;46196;52.970;6.954;2023-07-30T02:20:21;14.60;99.90
60353;DHT22;46196;52.970;6.954;2023-07-30T02:22:47;15.20;99.90
60353;DHT22;46196;52.970;6.954;2023-07-30T02:25:13;13.50;99.90
60353;DHT22;46196;52.970;6.954;2023-07-30T02:27:39;14.60;99.90
60353;DHT22;46196;52.970;6.954;2023-07-30T02:30:05;14.60;99.90
60353;DHT22;46196;52.970;6.954;2023-07-30T02:32:31;15.70;99.90
60353;DHT22;46196;52.970;6.954;2023-07-30T02:34:56;14.60;99.90
60353;DHT22;46196;52.970;6.954;2023-07-30T02:37:22;14.80;99.90
60353;DHT22;46196;52.970;6.954;2023-07-30T02:39:48;14.90;99.90
60353;DHT22;46196;52.970;6.954;2023-07-30T02:42:13;15.90;99.90
60353;DHT22;46196;52.970;6.954;2023-07-30T02:44:39;15.00;99.90
60353;DHT22;46196;52.970;6.954;2023-07-30T02:47:05;14.40;99.90
60353;DHT22;46196;52.970;6.954;2023-07-30T02:49:31;14.90;99.90
60353;DHT22;46196;52.970;6.954;2023-07-30T02:51:56;14.60;99.90
60353;DHT22;46196;52.970;6.954;2023-07-30T02:54:22;15.50;99.90
60353;DHT22;46196;52.970;6.954;2023-07-30T02:56:48;14.30;99.90
60353;DHT22;46196;52.970;6.954;2023-07-30T03:01:40;14.50;99.90
60353;DHT22;46196;52.970;6.954;2023-07-30T03:04:05;14.40;99.90
60353;DHT22;46196;52.970;6.954;2023-07-30T03:06:31;14.50;99.90
60353;DHT22;46196;52.970;6.954;2023-07-30T03:08:57;14.40;99.90
60353;DHT22;46196;52.970;6.954;2023-07-30T03:11:23;14.50;99.90
60353;DHT22;46196;52.970;6.954;2023-07-30T03:13:49;14.60;99.90
60353;DHT22;46196;52.970;6.954;2023-07-30T03:16:14;14.50;99.90
60353;DHT22;46196;52.970;6.954;2023-07-30T03:18:40;15.80;99.90
60353;DHT22;46196;52.970;6.954;2023-07-30T03:21:06;14.60;99.90
60353;DHT22;46196;52.970;6.954;2023-07-30T03:23:31;14.60;99.90
60353;DHT22;46196;52.970;6.954;2023-07-30T03:25:58;15.00;99.90
60353;DHT22;46196;52.970;6.954;2023-07-30T03:28:25;15.00;99.90
60353;DHT22;46196;52.970;6.954;2023-07-30T03:30:51;14.60;99.90
60353;DHT22;46196;52.970;6.954;2023-07-30T03:33:17;14.50;99.90
60353;DHT22;46196;52.970;6.954;2023-07-30T03:35:42;14.40;99.90
60353;DHT22;46196;52.970;6.954;2023-07-30T03:38:08;14.70;99.90
60353;DHT22;46196;52.970;6.954;2023-07-30T03:40:34;14.90;99.90
60353;DHT22;46196;52.970;6.954;2023-07-30T03:45:26;14.90;99.90
60353;DHT22;46196;52.970;6.954;2023-07-30T03:50:17;15.90;99.90
60353;DHT22;46196;52.970;6.954;2023-07-30T03:52:43;14.50;99.90
60353;DHT22;46196;52.970;6.954;2023-07-30T03:55:09;14.10;99.90
60353;DHT22;46196;52.970;6.954;2023-07-30T03:57:34;13.10;99.90
60353;DHT22;46196;52.970;6.954;2023-07-30T04:04:54;15.00;99.90
60353;DHT22;46196;52.970;6.954;2023-07-30T04:07:20;14.50;99.90
60353;DHT22;46196;52.970;6.954;2023-07-30T04:09:45;14.10;99.90
60353;DHT22;46196;52.970;6.954;2023-07-30T04:12:11;15.10;99.90
60353;DHT22;46196;52.970;6.954;2023-07-30T04:14:36;15.50;99.90
60353;DHT22;46196;52.970;6.954;2023-07-30T04:17:02;14.40;99.90
60353;DHT22;46196;52.970;6.954;2023-07-30T04:19:28;14.10;99.90
60353;DHT22;46196;52.970;6.954;2023-07-30T04:21:54;13.40;99.90
60353;DHT22;46196;52.970;6.954;2023-07-30T04:24:19;14.10;99.90
60353;DHT22;46196;52.970;6.954;2023-07-30T04:29:11;15.80;99.90
60353;DHT22;46196;52.970;6.954;2023-07-30T04:31:39;13.00;99.90
60353;DHT22;46196;52.970;6.954;2023-07-30T04:34:04;14.40;99.90
60353;DHT22;46196;52.970;6.954;2023-07-30T04:36:30;16.30;99.90
60353;DHT22;46196;52.970;6.954;2023-07-30T04:41:22;15.10;99.90
60353;DHT22;46196;52.970;6.954;2023-07-30T04:46:13;14.40;99.90
60353;DHT22;46196;52.970;6.954;2023-07-30T04:48:40;14.60;99.90
60353;DHT22;46196;52.970;6.954;2023-07-30T04:51:06;14.60;99.90
60353;DHT22;46196;52.970;6.954;2023-07-30T04:55:59;14.60;99.90
60353;DHT22;46196;52.970;6.954;2023-07-30T04:58:24;15.40;99.90
60353;DHT22;46196;52.970;6.954;2023-07-30T05:03:16;16.10;99.90
60353;DHT22;46196;52.970;6.954;2023-07-30T05:05:42;15.20;99.90
60353;DHT22;46196;52.970;6.954;2023-07-30T05:08:08;14.40;99.90
60353;DHT22;46196;52.970;6.954;2023-07-30T05:10:33;15.00;99.90
60353;DHT22;46196;52.970;6.954;2023-07-30T05:12:59;15.20;99.90
60353;DHT22;46196;52.970;6.954;2023-07-30T05:15:25;15.50;99.90
60353;DHT22;46196;52.970;6.954;2023-07-30T05:20:17;15.10;99.90
60353;DHT22;46196;52.970;6.954;2023-07-30T05:22:43;15.40;99.90
60353;DHT22;46196;52.970;6.954;2023-07-30T05:25:08;15.90;99.90
60353;DHT22;46196;52.970;6.954;2023-07-30T05:27:35;16.10;99.90
60353;DHT22;46196;52.970;6.954;2023-07-30T05:30:02;16.80;99.90
60353;DHT22;46196;52.970;6.954;2023-07-30T05:32:27;15.30;99.90
60353;DHT22;46196;52.970;6.954;2023-07-30T05:34:53;15.60;99.90
60353;DHT22;46196;52.970;6.954;2023-07-30T05:37:19;15.50;99.90
60353;DHT22;46196;52.970;6.954;2023-07-30T05:39:45;15.70;99.90
60353;DHT22;46196;52.970;6.954;2023-07-30T05:42:10;15.60;99.90
60353;DHT22;46196;52.970;6.954;2023-07-30T05:44:36;15.30;99.90
60353;DHT22;46196;52.970;6.954;2023-07-30T05:47:02;16.30;99.90
60353;DHT22;46196;52.970;6.954;2023-07-30T05:49:27;16.00;99.90
60353;DHT22;46196;52.970;6.954;2023-07-30T05:51:53;15.60;99.90
60353;DHT22;46196;52.970;6.954;2023-07-30T05:54:19;15.90;99.90
60353;DHT22;46196;52.970;6.954;2023-07-30T05:56:45;16.20;99.90
60353;DHT22;46196;52.970;6.954;2023-07-30T05:59:10;16.70;99.90
60353;DHT22;46196;52.970;6.954;2023-07-30T06:04:02;16.20;99.90
60353;DHT22;46196;52.970;6.954;2023-07-30T06:06:28;16.10;99.90
60353;DHT22;46196;52.970;6.954;2023-07-30T06:08:54;16.10;99.90
60353;DHT22;46196;52.970;6.954;2023-07-30T06:11:21;16.00;99.90
60353;DHT22;46196;52.970;6.954;2023-07-30T06:13:46;15.80;99.90
60353;DHT22;46196;52.970;6.954;2023-07-30T06:16:13;16.40;99.90
60353;DHT22;46196;52.970;6.954;2023-07-30T06:18:39;16.20;99.90
60353;DHT22;46196;52.970;6.954;2023-07-30T06:21:04;16.60;99.90
60353;DHT22;46196;52.970;6.954;2023-07-30T06:23:30;17.90;99.90
60353;DHT22;46196;52.970;6.954;2023-07-30T06:30:48;17.40;99.90
60353;DHT22;46196;52.970;6.954;2023-07-30T06:33:14;16.40;99.90
60353;DHT22;46196;52.970;6.954;2023-07-30T06:35:40;16.40;99.90
60353;DHT22;46196;52.970;6.954;2023-07-30T06:38:08;16.70;99.90
60353;DHT22;46196;52.970;6.954;2023-07-30T06:40:34;15.90;99.90
60353;DHT22;46196;52.970;6.954;2023-07-30T06:43:00;16.40;99.90
60353;DHT22;46196;52.970;6.954;2023-07-30T06:45:25;15.60;99.90
60353;DHT22;46196;52.970;6.954;2023-07-30T06:47:51;16.60;99.90
60353;DHT22;46196;52.970;6.954;2023-07-30T06:50:17;16.60;99.90
60353;DHT22;46196;52.970;6.954;2023-07-30T06:52:42;16.60;99.90
60353;DHT22;46196;52.970;6.954;2023-07-30T06:55:08;16.90;99.90
60353;DHT22;46196;52.970;6.954;2023-07-30T06:57:34;16.80;99.90
60353;DHT22;46196;52.970;6.954;2023-07-30T07:02:26;16.70;99.90
60353;DHT22;46196;52.970;6.954;2023-07-30T07:04:54;16.40;99.90
60353;DHT22;46196;52.970;6.954;2023-07-30T07:07:20;17.00;99.90
60353;DHT22;46196;52.970;6.954;2023-07-30T07:09:46;16.50;99.90
60353;DHT22;46196;52.970;6.954;2023-07-30T07:12:12;17.10;99.90
60353;DHT22;46196;52.970;6.954;2023-07-30T07:17:04;17.10;99.90
60353;DHT22;46196;52.970;6.954;2023-07-30T07:24:23;17.30;99.90
60353;DHT22;46196;52.970;6.954;2023-07-30T07:26:48;19.40;99.90
60353;DHT22;46196;52.970;6.954;2023-07-30T07:29:14;17.80;99.90
60353;DHT22;46196;52.970;6.954;2023-07-30T07:31:40;18.10;99.90
60353;DHT22;46196;52.970;6.954;2023-07-30T07:34:05;18.10;99.90
60353;DHT22;46196;52.970;6.954;2023-07-30T07:36:31;18.20;99.90
60353;DHT22;46196;52.970;6.954;2023-07-30T07:38:57;18.20;99.90
60353;DHT22;46196;52.970;6.954;2023-07-30T07:41:22;17.90;99.90
60353;DHT22;46196;52.970;6.954;2023-07-30T07:43:48;18.00;99.90
60353;DHT22;46196;52.970;6.954;2023-07-30T07:46:14;18.60;99.90
60353;DHT22;46196;52.970;6.954;2023-07-30T07:48:41;18.80;99.90
60353;DHT22;46196;52.970;6.954;2023-07-30T07:51:07;19.70;99.90
60353;DHT22;46196;52.970;6.954;2023-07-30T07:53:33;20.70;99.90
60353;DHT22;46196;52.970;6.954;2023-07-30T07:55:59;20.40;99.90
60353;DHT22;46196;52.970;6.954;2023-07-30T07:58:24;21.00;99.90
60353;DHT22;46196;52.970;6.954;2023-07-30T08:00:50;21.10;99.90
60353;DHT22;46196;52.970;6.954;2023-07-30T08:03:19;21.00;99.90
60353;DHT22;46196;52.970;6.954;2023-07-30T08:05:45;20.30;99.90
60353;DHT22;46196;52.970;6.954;2023-07-30T08:08:10;20.90;99.90
60353;DHT22;46196;52.970;6.954;2023-07-30T08:10:40;20.50;99.90
60353;DHT22;46196;52.970;6.954;2023-07-30T08:13:08;19.30;99.90
60353;DHT22;46196;52.970;6.954;2023-07-30T08:15:33;21.60;99.90
60353;DHT22;46196;52.970;6.954;2023-07-30T08:17:59;21.40;99.90
60353;DHT22;46196;52.970;6.954;2023-07-30T08:20:25;21.80;99.90
60353;DHT22;46196;52.970;6.954;2023-07-30T08:22:50;22.00;99.90
60353;DHT22;46196;52.970;6.954;2023-07-30T08:25:16;23.40;99.90
60353;DHT22;46196;52.970;6.954;2023-07-30T08:27:42;22.60;99.90
60353;DHT22;46196;52.970;6.954;2023-07-30T08:30:08;22.50;99.90
60353;DHT22;46196;52.970;6.954;2023-07-30T08:32:34;23.30;99.90
60353;DHT22;46196;52.970;6.954;2023-07-30T08:34:59;21.90;99.90
60353;DHT22;46196;52.970;6.954;2023-07-30T08:37:25;21.70;99.90
60353;DHT22;46196;52.970;6.954;2023-07-30T08:39:52;20.10;99.90
60353;DHT22;46196;52.970;6.954;2023-07-30T08:42:18;20.90;99.90
60353;DHT22;46196;52.970;6.954;2023-07-30T08:44:44;22.00;99.90
60353;DHT22;46196;52.970;6.954;2023-07-30T08:47:10;21.30;99.90
60353;DHT22;46196;52.970;6.954;2023-07-30T08:49:36;21.10;99.90
60353;DHT22;46196;52.970;6.954;2023-07-30T08:52:03;20.90;99.90
60353;DHT22;46196;52.970;6.954;2023-07-30T08:54:31;20.60;99.90
60353;DHT22;46196;52.970;6.954;2023-07-30T08:57:01;20.50;99.90
60353;DHT22;46196;52.970;6.954;2023-07-30T08:59:31;20.10;99.90
60353;DHT22;46196;52.970;6.954;2023-07-30T09:01:58;19.80;99.90
60353;DHT22;46196;52.970;6.954;2023-07-30T09:04:24;21.30;99.90
60353;DHT22;46196;52.970;6.954;2023-07-30T09:06:50;19.50;99.90
60353;DHT22;46196;52.970;6.954;2023-07-30T09:09:16;20.50;99.90
60353;DHT22;46196;52.970;6.954;2023-07-30T09:11:42;18.50;99.90
60353;DHT22;46196;52.970;6.954;2023-07-30T09:14:07;19.00;99.90
60353;DHT22;46196;52.970;6.954;2023-07-30T09:16:34;18.40;99.90
60353;DHT22;46196;52.970;6.954;2023-07-30T09:19:00;18.10;99.90
60353;DHT22;46196;52.970;6.954;2023-07-30T09:21:32;18.00;99.90
60353;DHT22;46196;52.970;6.954;2023-07-30T09:24:02;19.10;99.90
60353;DHT22;46196;52.970;6.954;2023-07-30T09:26:47;17.70;99.90
60353;DHT22;46196;52.970;6.954;2023-07-30T09:29:13;17.30;99.90
60353;DHT22;46196;52.970;6.954;2023-07-30T09:31:53;17.30;99.90
60353;DHT22;46196;52.970;6.954;2023-07-30T09:34:25;16.90;99.90
60353;DHT22;46196;52.970;6.954;2023-07-30T09:36:53;16.70;99.90
60353;DHT22;46196;52.970;6.954;2023-07-30T09:39:24;16.60;99.90
60353;DHT22;46196;52.970;6.954;2023-07-30T09:41:51;16.40;99.90
60353;DHT22;46196;52.970;6.954;2023-07-30T09:44:19;17.10;99.90
60353;DHT22;46196;52.970;6.954;2023-07-30T09:46:47;16.40;99.90
60353;DHT22;46196;52.970;6.954;2023-07-30T09:49:13;16.00;99.90
60353;DHT22;46196;52.970;6.954;2023-07-30T09:51:39;16.30;99.90
60353;DHT22;46196;52.970;6.954;2023-07-30T09:54:11;16.30;99.90
60353;DHT22;46196;52.970;6.954;2023-07-30T09:56:37;16.30;99.90
60353;DHT22;46196;52.970;6.954;2023-07-30T09:59:07;16.30;99.90
60353;DHT22;46196;52.970;6.954;2023-07-30T10:01:38;16.30;99.90
60353;DHT22;46196;52.970;6.954;2023-07-30T10:04:08;16.30;99.90
60353;DHT22;46196;52.970;6.954;2023-07-30T10:06:44;16.20;99.90
60353;DHT22;46196;52.970;6.954;2023-07-30T10:09:13;15.80;99.90
60353;DHT22;46196;52.970;6.954;2023-07-30T10:11:40;16.10;99.90
60353;DHT22;46196;52.970;6.954;2023-07-30T10:14:06;16.10;99.90
60353;DHT22;46196;52.970;6.954;2023-07-30T10:16:32;15.40;99.90
60353;DHT22;46196;52.970;6.954;2023-07-30T10:18:58;15.60;99.90
60353;DHT22;46196;52.970;6.954;2023-07-30T10:21:27;15.20;99.90
60353;DHT22;46196;52.970;6.954;2023-07-30T10:24:02;15.40;99.90
60353;DHT22;46196;52.970;6.954;2023-07-30T10:26:31;15.30;99.90
60353;DHT22;46196;52.970;6.954;2023-07-30T10:29:16;15.50;99.90
60353;DHT22;46196;52.970;6.954;2023-07-30T10:31:47;15.20;99.90
60353;DHT22;46196;52.970;6.954;2023-07-30T10:34:13;16.30;99.90
60353;DHT22;46196;52.970;6.954;2023-07-30T10:36:51;16.10;99.90
60353;DHT22;46196;52.970;6.954;2023-07-30T10:39:20;16.70;99.90
60353;DHT22;46196;52.970;6.954;2023-07-30T10:41:51;16.70;99.90
60353;DHT22;46196;52.970;6.954;2023-07-30T10:44:30;17.30;99.90
60353;DHT22;46196;52.970;6.954;2023-07-30T10:46:57;15.70;99.90
60353;DHT22;46196;52.970;6.954;2023-07-30T10:49:24;16.00;99.90
60353;DHT22;46196;52.970;6.954;2023-07-30T10:51:55;15.90;99.90
60353;DHT22;46196;52.970;6.954;2023-07-30T10:54:22;16.20;99.90
60353;DHT22;46196;52.970;6.954;2023-07-30T10:56:49;16.80;99.90
60353;DHT22;46196;52.970;6.954;2023-07-30T10:59:15;17.00;99.90
60353;DHT22;46196;52.970;6.954;2023-07-30T11:01:42;16.80;99.90
60353;DHT22;46196;52.970;6.954;2023-07-30T11:04:17;17.60;99.90
60353;DHT22;46196;52.970;6.954;2023-07-30T11:06:47;19.20;99.90
60353;DHT22;46196;52.970;6.954;2023-07-30T11:09:23;18.20;99.90
60353;DHT22;46196;52.970;6.954;2023-07-30T11:11:51;18.10;99.90
60353;DHT22;46196;52.970;6.954;2023-07-30T11:14:24;18.70;99.90
60353;DHT22;46196;52.970;6.954;2023-07-30T11:16:59;19.20;99.90
60353;DHT22;46196;52.970;6.954;2023-07-30T11:19:26;19.40;99.90
60353;DHT22;46196;52.970;6.954;2023-07-30T11:21:55;18.60;99.90
60353;DHT22;46196;52.970;6.954;2023-07-30T11:24:22;19.20;99.90
60353;DHT22;46196;52.970;6.954;2023-07-30T11:27:00;19.50;99.90
60353;DHT22;46196;52.970;6.954;2023-07-30T11:29:26;19.30;99.90
60353;DHT22;46196;52.970;6.954;2023-07-30T11:31:56;19.70;99.90
60353;DHT22;46196;52.970;6.954;2023-07-30T11:34:23;19.70;99.90
60353;DHT22;46196;52.970;6.954;2023-07-30T11:36:49;20.00;99.90
60353;DHT22;46196;52.970;6.954;2023-07-30T11:39:15;20.00;99.90
60353;DHT22;46196;52.970;6.954;2023-07-30T11:41:41;19.60;99.90
60353;DHT22;46196;52.970;6.954;2023-07-30T11:44:07;19.90;99.90
60353;DHT22;46196;52.970;6.954;2023-07-30T11:46:33;19.70;99.90
60353;DHT22;46196;52.970;6.954;2023-07-30T11:49:15;20.60;99.90
60353;DHT22;46196;52.970;6.954;2023-07-30T11:51:42;20.10;99.90
60353;DHT22;46196;52.970;6.954;2023-07-30T11:54:17;19.70;99.90
60353;DHT22;46196;52.970;6.954;2023-07-30T11:56:43;20.70;99.90
60353;DHT22;46196;52.970;6.954;2023-07-30T11:59:09;20.00;99.90
60353;DHT22;46196;52.970;6.954;2023-07-30T12:01:35;20.00;99.90
60353;DHT22;46196;52.970;6.954;2023-07-30T12:04:04;20.70;99.90
60353;DHT22;46196;52.970;6.954;2023-07-30T12:06:52;22.80;99.90
60353;DHT22;46196;52.970;6.954;2023-07-30T12:09:20;21.30;99.90
60353;DHT22;46196;52.970;6.954;2023-07-30T12:12:01;20.90;99.90
60353;DHT22;46196;52.970;6.954;2023-07-30T12:17:14;22.40;99.90
60353;DHT22;46196;52.970;6.954;2023-07-30T12:19:41;21.50;99.90
60353;DHT22;46196;52.970;6.954;2023-07-30T12:22:06;22.40;99.90
60353;DHT22;46196;52.970;6.954;2023-07-30T12:24:32;21.60;99.90
60353;DHT22;46196;52.970;6.954;2023-07-30T12:26:58;21.20;99.90
60353;DHT22;46196;52.970;6.954;2023-07-30T12:29:24;21.20;99.90
60353;DHT22;46196;52.970;6.954;2023-07-30T12:31:50;21.20;99.90
60353;DHT22;46196;52.970;6.954;2023-07-30T12:34:19;21.80;99.90
60353;DHT22;46196;52.970;6.954;2023-07-30T12:36:46;18.60;99.90
60353;DHT22;46196;52.970;6.954;2023-07-30T12:39:12;21.50;99.90
60353;DHT22;46196;52.970;6.954;2023-07-30T12:41:38;19.50;99.90
60353;DHT22;46196;52.970;6.954;2023-07-30T12:44:04;19.60;99.90
60353;DHT22;46196;52.970;6.954;2023-07-30T12:46:31;19.50;99.90
60353;DHT22;46196;52.970;6.954;2023-07-30T12:48:58;19.40;99.90
60353;DHT22;46196;52.970;6.954;2023-07-30T12:51:29;20.10;99.90
60353;DHT22;46196;52.970;6.954;2023-07-30T12:53:56;19.40;99.90
60353;DHT22;46196;52.970;6.954;2023-07-30T12:56:22;19.50;99.90
60353;DHT22;46196;52.970;6.954;2023-07-30T13:01:13;21.30;99.90
60353;DHT22;46196;52.970;6.954;2023-07-30T13:03:39;19.80;99.90
60353;DHT22;46196;52.970;6.954;2023-07-30T13:06:10;20.00;99.90
60353;DHT22;46196;52.970;6.954;2023-07-30T13:08:38;19.80;99.90
60353;DHT22;46196;52.970;6.954;2023-07-30T13:11:04;19.60;99.90
60353;DHT22;46196;52.970;6.954;2023-07-30T13:13:30;18.70;99.90
60353;DHT22;46196;52.970;6.954;2023-07-30T13:15:55;19.80;99.90
60353;DHT22;46196;52.970;6.954;2023-07-30T13:18:27;18.90;99.90
60353;DHT22;46196;52.970;6.954;2023-07-30T13:20:52;19.70;99.90
60353;DHT22;46196;52.970;6.954;2023-07-30T13:23:18;18.50;99.90
60353;DHT22;46196;52.970;6.954;2023-07-30T13:25:44;18.80;99.90
60353;DHT22;46196;52.970;6.954;2023-07-30T13:28:09;18.30;99.90
60353;DHT22;46196;52.970;6.954;2023-07-30T13:30:35;19.70;99.90
60353;DHT22;46196;52.970;6.954;2023-07-30T13:33:01;18.20;99.90
60353;DHT22;46196;52.970;6.954;2023-07-30T13:35:27;19.00;99.90
60353;DHT22;46196;52.970;6.954;2023-07-30T13:37:52;18.40;99.90
60353;DHT22;46196;52.970;6.954;2023-07-30T13:40:18;18.40;99.90
60353;DHT22;46196;52.970;6.954;2023-07-30T13:45:10;18.10;99.90
60353;DHT22;46196;52.970;6.954;2023-07-30T13:47:36;18.60;99.90
60353;DHT22;46196;52.970;6.954;2023-07-30T13:50:01;18.40;99.90
60353;DHT22;46196;52.970;6.954;2023-07-30T13:52:27;18.60;99.90
60353;DHT22;46196;52.970;6.954;2023-07-30T13:54:53;18.80;99.90
60353;DHT22;46196;52.970;6.954;2023-07-30T13:57:25;18.60;99.90
60353;DHT22;46196;52.970;6.954;2023-07-30T13:59:51;19.50;99.90
60353;DHT22;46196;52.970;6.954;2023-07-30T14:02:17;18.60;99.90
60353;DHT22;46196;52.970;6.954;2023-07-30T14:04:43;19.30;99.90
60353;DHT22;46196;52.970;6.954;2023-07-30T14:07:09;19.10;99.90
60353;DHT22;46196;52.970;6.954;2023-07-30T14:09:34;19.40;99.90
60353;DHT22;46196;52.970;6.954;2023-07-30T14:12:03;19.90;99.90
60353;DHT22;46196;52.970;6.954;2023-07-30T14:14:28;20.20;99.90
60353;DHT22;46196;52.970;6.954;2023-07-30T14:16:54;20.30;99.90
60353;DHT22;46196;52.970;6.954;2023-07-30T14:19:20;20.10;99.90
60353;DHT22;46196;52.970;6.954;2023-07-30T14:21:46;20.40;99.90
60353;DHT22;46196;52.970;6.954;2023-07-30T14:24:12;20.40;99.90
60353;DHT22;46196;52.970;6.954;2023-07-30T14:26:37;19.90;99.90
60353;DHT22;46196;52.970;6.954;2023-07-30T14:29:03;20.00;99.90
60353;DHT22;46196;52.970;6.954;2023-07-30T14:31:29;20.00;99.90
60353;DHT22;46196;52.970;6.954;2023-07-30T14:33:54;19.80;99.90
60353;DHT22;46196;52.970;6.954;2023-07-30T14:36:20;20.10;99.90
60353;DHT22;46196;52.970;6.954;2023-07-30T14:38:46;20.40;99.90
60353;DHT22;46196;52.970;6.954;2023-07-30T14:41:11;20.20;99.90
60353;DHT22;46196;52.970;6.954;2023-07-30T14:48:29;21.10;99.90
60353;DHT22;46196;52.970;6.954;2023-07-30T14:50:55;20.20;99.90
60353;DHT22;46196;52.970;6.954;2023-07-30T14:53:21;20.40;99.90
60353;DHT22;46196;52.970;6.954;2023-07-30T14:55:47;20.50;99.90
60353;DHT22;46196;52.970;6.954;2023-07-30T14:58:12;21.20;99.90
60353;DHT22;46196;52.970;6.954;2023-07-30T15:00:39;20.50;99.90
60353;DHT22;46196;52.970;6.954;2023-07-30T15:03:05;20.40;99.90
60353;DHT22;46196;52.970;6.954;2023-07-30T15:05:31;20.10;99.90
60353;DHT22;46196;52.970;6.954;2023-07-30T15:07:58;19.50;99.90
60353;DHT22;46196;52.970;6.954;2023-07-30T15:10:24;20.80;99.90
60353;DHT22;46196;52.970;6.954;2023-07-30T15:12:50;21.10;99.90
60353;DHT22;46196;52.970;6.954;2023-07-30T15:15:16;20.20;99.90
60353;DHT22;46196;52.970;6.954;2023-07-30T15:17:41;20.40;99.90
60353;DHT22;46196;52.970;6.954;2023-07-30T15:20:07;19.90;99.90
60353;DHT22;46196;52.970;6.954;2023-07-30T15:22:33;20.00;99.90
60353;DHT22;46196;52.970;6.954;2023-07-30T15:27:25;19.80;99.90
60353;DHT22;46196;52.970;6.954;2023-07-30T15:29:51;19.40;99.90
60353;DHT22;46196;52.970;6.954;2023-07-30T15:32:17;20.50;99.90
60353;DHT22;46196;52.970;6.954;2023-07-30T15:34:42;19.90;99.90
60353;DHT22;46196;52.970;6.954;2023-07-30T15:37:09;19.70;99.90
60353;DHT22;46196;52.970;6.954;2023-07-30T15:39:34;19.20;99.90
60353;DHT22;46196;52.970;6.954;2023-07-30T15:42:07;19.50;99.90
60353;DHT22;46196;52.970;6.954;2023-07-30T15:44:32;19.30;99.90
60353;DHT22;46196;52.970;6.954;2023-07-30T15:46:58;18.90;99.90
60353;DHT22;46196;52.970;6.954;2023-07-30T15:49:24;19.80;99.90
60353;DHT22;46196;52.970;6.954;2023-07-30T15:51:50;18.90;99.90
60353;DHT22;46196;52.970;6.954;2023-07-30T15:54:16;18.90;99.90
60353;DHT22;46196;52.970;6.954;2023-07-30T15:56:42;18.50;99.90
60353;DHT22;46196;52.970;6.954;2023-07-30T15:59:08;19.70;99.90
60353;DHT22;46196;52.970;6.954;2023-07-30T16:01:34;18.90;99.90
60353;DHT22;46196;52.970;6.954;2023-07-30T16:04:00;18.20;99.90
60353;DHT22;46196;52.970;6.954;2023-07-30T16:06:26;19.60;99.90
60353;DHT22;46196;52.970;6.954;2023-07-30T16:08:52;19.20;99.90
60353;DHT22;46196;52.970;6.954;2023-07-30T16:11:18;20.10;99.90
60353;DHT22;46196;52.970;6.954;2023-07-30T16:18:36;19.90;99.90
60353;DHT22;46196;52.970;6.954;2023-07-30T16:21:03;20.00;99.90
60353;DHT22;46196;52.970;6.954;2023-07-30T16:23:29;20.00;99.90
60353;DHT22;46196;52.970;6.954;2023-07-30T16:25:55;20.80;99.90
60353;DHT22;46196;52.970;6.954;2023-07-30T16:28:21;20.70;99.90
60353;DHT22;46196;52.970;6.954;2023-07-30T16:30:47;20.40;99.90
60353;DHT22;46196;52.970;6.954;2023-07-30T16:33:14;19.80;99.90
60353;DHT22;46196;52.970;6.954;2023-07-30T16:35:39;20.40;99.90
60353;DHT22;46196;52.970;6.954;2023-07-30T16:38:05;20.30;99.90
60353;DHT22;46196;52.970;6.954;2023-07-30T16:40:31;20.40;99.90
60353;DHT22;46196;52.970;6.954;2023-07-30T16:42:57;20.80;99.90
60353;DHT22;46196;52.970;6.954;2023-07-30T16:45:22;20.60;99.90
60353;DHT22;46196;52.970;6.954;2023-07-30T16:47:48;20.70;99.90